sensor_id;sensor_type;location;lat;lon;timestamp;temperature;humidity
53294;DHT22;39181;53.440;5.644;2023-03-29T00:00:26;5.70;99.90
53294;DHT22;39181;53.440;5.644;2023-03-29T00:02:52;5.70;99.90
53294;DHT22;39181;53.440;5.644;2023-03-29T00:05:21;5.70;99.90
53294;DHT22;39181;53.440;5.644;2023-03-29T00:07:50;5.70;99.90
53294;DHT22;39181;53.440;5.644;2023-03-29T00:10:20;5.70;99.90
53294;DHT22;39181;53.440;5.644;2023-03-29T00:12:48;5.70;99.90
53294;DHT22;39181;53.440;5.644;2023-03-29T00:15:16;5.70;99.90
53294;DHT22;39181;53.440;5.644;2023-03-29T00:17:42;5.70;99.90
53294;DHT22;39181;53.440;5.644;2023-03-29T00:20:07;5.70;99.90
53294;DHT22;39181;53.440;5.644;2023-03-29T00:22:38;5.80;99.90
53294;DHT22;39181;53.440;5.644;2023-03-29T00:25:05;5.80;99.90
53294;DHT22;39181;53.440;5.644;2023-03-29T00:27:32;5.70;99.90
53294;DHT22;39181;53.440;5.644;2023-03-29T00:29:58;5.70;99.90
53294;DHT22;39181;53.440;5.644;2023-03-29T00:32:24;5.70;99.90
53294;DHT22;39181;53.440;5.644;2023-03-29T00:34:49;5.70;99.90
53294;DHT22;39181;53.440;5.644;2023-03-29T00:37:18;5.70;99.90
53294;DHT22;39181;53.440;5.644;2023-03-29T00:39:47;5.70;99.90
53294;DHT22;39181;53.440;5.644;2023-03-29T00:42:14;5.60;99.90
53294;DHT22;39181;53.440;5.644;2023-03-29T00:44:57;5.60;99.90
53294;DHT22;39181;53.440;5.644;2023-03-29T00:50:15;5.60;99.90
53294;DHT22;39181;53.440;5.644;2023-03-29T00:52:45;5.60;99.90
53294;DHT22;39181;53.440;5.644;2023-03-29T00:55:16;5.60;99.90
53294;DHT22;39181;53.440;5.644;2023-03-29T00:57:43;5.60;99.90
53294;DHT22;39181;53.440;5.644;2023-03-29T01:00:13;5.60;99.90
53294;DHT22;39181;53.440;5.644;2023-03-29T01:02:43;5.60;99.90
53294;DHT22;39181;53.440;5.644;2023-03-29T01:05:17;5.60;99.90
53294;DHT22;39181;53.440;5.644;2023-03-29T01:08:00;5.60;99.90
53294;DHT22;39181;53.440;5.644;2023-03-29T01:10:47;5.60;99.90
53294;DHT22;39181;53.440;5.644;2023-03-29T01:13:24;5.60;99.90
53294;DHT22;39181;53.440;5.644;2023-03-29T01:15:52;5.60;99.90
53294;DHT22;39181;53.440;5.644;2023-03-29T01:18:18;5.50;99.90
53294;DHT22;39181;53.440;5.644;2023-03-29T01:21:14;5.50;99.90
53294;DHT22;39181;53.440;5.644;2023-03-29T01:26:40;5.60;99.90
53294;DHT22;39181;53.440;5.644;2023-03-29T01:29:11;5.60;99.90
53294;DHT22;39181;53.440;5.644;2023-03-29T01:31:44;5.60;99.90
53294;DHT22;39181;53.440;5.644;2023-03-29T01:34:21;5.70;99.90
53294;DHT22;39181;53.440;5.644;2023-03-29T01:36:58;5.70;99.90
53294;DHT22;39181;53.440;5.644;2023-03-29T01:39:25;5.70;99.90
53294;DHT22;39181;53.440;5.644;2023-03-29T01:42:13;5.60;99.90
53294;DHT22;39181;53.440;5.644;2023-03-29T01:44:51;5.70;99.90
53294;DHT22;39181;53.440;5.644;2023-03-29T01:48:32;5.60;99.90
53294;DHT22;39181;53.440;5.644;2023-03-29T01:50:32;5.70;99.90
53294;DHT22;39181;53.440;5.644;2023-03-29T01:53:26;5.70;99.90
53294;DHT22;39181;53.440;5.644;2023-03-29T01:56:04;5.70;99.90
53294;DHT22;39181;53.440;5.644;2023-03-29T01:58:35;5.70;99.90
53294;DHT22;39181;53.440;5.644;2023-03-29T02:01:04;5.70;99.90
53294;DHT22;39181;53.440;5.644;2023-03-29T02:03:37;5.70;99.90
53294;DHT22;39181;53.440;5.644;2023-03-29T02:06:09;5.70;99.90
53294;DHT22;39181;53.440;5.644;2023-03-29T02:08:38;5.80;99.90
53294;DHT22;39181;53.440;5.644;2023-03-29T02:11:05;5.70;99.90
53294;DHT22;39181;53.440;5.644;2023-03-29T02:13:32;5.80;99.90
53294;DHT22;39181;53.440;5.644;2023-03-29T02:15:57;5.80;99.90
53294;DHT22;39181;53.440;5.644;2023-03-29T02:18:27;5.70;99.90
53294;DHT22;39181;53.440;5.644;2023-03-29T02:20:56;5.80;99.90
53294;DHT22;39181;53.440;5.644;2023-03-29T02:23:30;5.70;99.90
53294;DHT22;39181;53.440;5.644;2023-03-29T02:25:59;5.70;99.90
53294;DHT22;39181;53.440;5.644;2023-03-29T02:28:25;5.70;99.90
53294;DHT22;39181;53.440;5.644;2023-03-29T02:33:29;5.70;99.90
53294;DHT22;39181;53.440;5.644;2023-03-29T02:36:01;5.70;99.90
53294;DHT22;39181;53.440;5.644;2023-03-29T02:38:29;5.70;99.90
53294;DHT22;39181;53.440;5.644;2023-03-29T02:40:56;5.60;99.90
53294;DHT22;39181;53.440;5.644;2023-03-29T02:43:23;5.60;99.90
53294;DHT22;39181;53.440;5.644;2023-03-29T02:45:50;5.70;99.90
53294;DHT22;39181;53.440;5.644;2023-03-29T02:48:19;5.70;99.90
53294;DHT22;39181;53.440;5.644;2023-03-29T02:50:47;5.70;99.90
53294;DHT22;39181;53.440;5.644;2023-03-29T02:53:16;5.70;99.90
53294;DHT22;39181;53.440;5.644;2023-03-29T02:55:43;5.70;99.90
53294;DHT22;39181;53.440;5.644;2023-03-29T02:58:11;5.70;99.90
53294;DHT22;39181;53.440;5.644;2023-03-29T03:00:41;5.70;99.90
53294;DHT22;39181;53.440;5.644;2023-03-29T03:03:09;5.70;99.90
53294;DHT22;39181;53.440;5.644;2023-03-29T03:05:37;5.70;99.90
53294;DHT22;39181;53.440;5.644;2023-03-29T03:08:03;5.70;99.90
53294;DHT22;39181;53.440;5.644;2023-03-29T03:10:29;5.70;99.90
53294;DHT22;39181;53.440;5.644;2023-03-29T03:12:55;5.70;99.90
53294;DHT22;39181;53.440;5.644;2023-03-29T03:15:20;5.70;99.90
53294;DHT22;39181;53.440;5.644;2023-03-29T03:17:46;5.70;99.90
53294;DHT22;39181;53.440;5.644;2023-03-29T03:20:13;5.60;99.90
53294;DHT22;39181;53.440;5.644;2023-03-29T03:22:43;5.60;99.90
53294;DHT22;39181;53.440;5.644;2023-03-29T03:25:14;5.70;99.90
53294;DHT22;39181;53.440;5.644;2023-03-29T03:27:41;5.70;99.90
53294;DHT22;39181;53.440;5.644;2023-03-29T03:30:08;5.60;99.90
53294;DHT22;39181;53.440;5.644;2023-03-29T03:32:34;5.60;99.90
53294;DHT22;39181;53.440;5.644;2023-03-29T03:35:01;5.60;99.90
53294;DHT22;39181;53.440;5.644;2023-03-29T03:37:27;5.60;99.90
53294;DHT22;39181;53.440;5.644;2023-03-29T03:39:53;5.60;99.90
53294;DHT22;39181;53.440;5.644;2023-03-29T03:42:19;5.60;99.90
53294;DHT22;39181;53.440;5.644;2023-03-29T03:44:47;5.60;99.90
53294;DHT22;39181;53.440;5.644;2023-03-29T03:47:13;5.60;99.90
53294;DHT22;39181;53.440;5.644;2023-03-29T03:49:39;5.60;99.90
53294;DHT22;39181;53.440;5.644;2023-03-29T03:52:05;5.60;99.90
53294;DHT22;39181;53.440;5.644;2023-03-29T03:54:32;5.60;99.90
53294;DHT22;39181;53.440;5.644;2023-03-29T03:56:58;5.70;99.90
53294;DHT22;39181;53.440;5.644;2023-03-29T03:59:23;5.70;99.90
53294;DHT22;39181;53.440;5.644;2023-03-29T04:01:49;5.70;99.90
53294;DHT22;39181;53.440;5.644;2023-03-29T04:04:15;5.70;99.90
53294;DHT22;39181;53.440;5.644;2023-03-29T04:06:41;5.70;99.90
53294;DHT22;39181;53.440;5.644;2023-03-29T04:09:06;5.70;99.90
53294;DHT22;39181;53.440;5.644;2023-03-29T04:11:33;5.80;99.90
53294;DHT22;39181;53.440;5.644;2023-03-29T04:13:59;5.80;99.90
53294;DHT22;39181;53.440;5.644;2023-03-29T04:16:25;5.80;99.90
53294;DHT22;39181;53.440;5.644;2023-03-29T04:18:51;5.80;99.90
53294;DHT22;39181;53.440;5.644;2023-03-29T04:21:17;5.80;99.90
53294;DHT22;39181;53.440;5.644;2023-03-29T04:23:43;5.90;99.90
53294;DHT22;39181;53.440;5.644;2023-03-29T04:26:11;5.80;99.90
53294;DHT22;39181;53.440;5.644;2023-03-29T04:28:38;5.80;99.90
53294;DHT22;39181;53.440;5.644;2023-03-29T04:31:04;5.90;99.90
53294;DHT22;39181;53.440;5.644;2023-03-29T04:33:30;5.90;99.90
53294;DHT22;39181;53.440;5.644;2023-03-29T04:35:55;5.90;99.90
53294;DHT22;39181;53.440;5.644;2023-03-29T04:38:21;6.00;99.90
53294;DHT22;39181;53.440;5.644;2023-03-29T04:40:49;6.00;99.90
53294;DHT22;39181;53.440;5.644;2023-03-29T04:43:14;6.00;99.90
53294;DHT22;39181;53.440;5.644;2023-03-29T04:45:40;6.00;99.90
53294;DHT22;39181;53.440;5.644;2023-03-29T04:48:06;6.00;99.90
53294;DHT22;39181;53.440;5.644;2023-03-29T04:50:31;6.00;99.90
53294;DHT22;39181;53.440;5.644;2023-03-29T04:52:57;6.10;99.90
53294;DHT22;39181;53.440;5.644;2023-03-29T04:55:25;6.10;99.90
53294;DHT22;39181;53.440;5.644;2023-03-29T04:57:51;6.10;99.90
53294;DHT22;39181;53.440;5.644;2023-03-29T05:00:18;6.10;99.90
53294;DHT22;39181;53.440;5.644;2023-03-29T05:02:45;6.10;99.90
53294;DHT22;39181;53.440;5.644;2023-03-29T05:05:11;6.10;99.90
53294;DHT22;39181;53.440;5.644;2023-03-29T05:07:37;6.20;99.90
53294;DHT22;39181;53.440;5.644;2023-03-29T05:10:03;6.20;99.90
53294;DHT22;39181;53.440;5.644;2023-03-29T05:12:29;6.20;99.90
53294;DHT22;39181;53.440;5.644;2023-03-29T05:14:55;6.30;99.90
53294;DHT22;39181;53.440;5.644;2023-03-29T05:17:21;6.30;99.90
53294;DHT22;39181;53.440;5.644;2023-03-29T05:19:47;6.30;99.90
53294;DHT22;39181;53.440;5.644;2023-03-29T05:22:13;6.40;99.90
53294;DHT22;39181;53.440;5.644;2023-03-29T05:24:39;6.40;99.90
53294;DHT22;39181;53.440;5.644;2023-03-29T05:27:06;6.40;99.90
53294;DHT22;39181;53.440;5.644;2023-03-29T05:29:32;6.40;99.90
53294;DHT22;39181;53.440;5.644;2023-03-29T05:31:58;6.40;99.90
53294;DHT22;39181;53.440;5.644;2023-03-29T05:34:24;6.40;99.90
53294;DHT22;39181;53.440;5.644;2023-03-29T05:36:51;6.40;99.90
53294;DHT22;39181;53.440;5.644;2023-03-29T05:39:17;6.40;99.90
53294;DHT22;39181;53.440;5.644;2023-03-29T05:41:42;6.40;99.90
53294;DHT22;39181;53.440;5.644;2023-03-29T05:44:08;6.30;99.90
53294;DHT22;39181;53.440;5.644;2023-03-29T05:46:34;6.40;99.90
53294;DHT22;39181;53.440;5.644;2023-03-29T05:48:59;6.40;99.90
53294;DHT22;39181;53.440;5.644;2023-03-29T05:51:26;6.40;99.90
53294;DHT22;39181;53.440;5.644;2023-03-29T05:53:51;6.40;99.90
53294;DHT22;39181;53.440;5.644;2023-03-29T05:56:18;6.30;99.90
53294;DHT22;39181;53.440;5.644;2023-03-29T05:58:44;6.40;99.90
53294;DHT22;39181;53.440;5.644;2023-03-29T06:01:14;6.40;99.90
53294;DHT22;39181;53.440;5.644;2023-03-29T06:03:39;6.40;99.90
53294;DHT22;39181;53.440;5.644;2023-03-29T06:06:05;6.30;99.90
53294;DHT22;39181;53.440;5.644;2023-03-29T06:08:32;6.30;99.90
53294;DHT22;39181;53.440;5.644;2023-03-29T06:11:00;6.30;99.90
53294;DHT22;39181;53.440;5.644;2023-03-29T06:13:27;6.40;99.90
53294;DHT22;39181;53.440;5.644;2023-03-29T06:15:53;6.40;99.90
53294;DHT22;39181;53.440;5.644;2023-03-29T06:18:19;6.40;99.90
53294;DHT22;39181;53.440;5.644;2023-03-29T06:20:48;6.40;99.90
53294;DHT22;39181;53.440;5.644;2023-03-29T06:23:18;6.40;99.90
53294;DHT22;39181;53.440;5.644;2023-03-29T06:25:45;6.40;99.90
53294;DHT22;39181;53.440;5.644;2023-03-29T06:28:11;6.40;99.90
53294;DHT22;39181;53.440;5.644;2023-03-29T06:30:38;6.50;99.90
53294;DHT22;39181;53.440;5.644;2023-03-29T06:33:04;6.50;99.90
53294;DHT22;39181;53.440;5.644;2023-03-29T06:35:33;6.50;99.90
53294;DHT22;39181;53.440;5.644;2023-03-29T06:37:59;6.50;99.90
53294;DHT22;39181;53.440;5.644;2023-03-29T06:40:25;6.60;99.90
53294;DHT22;39181;53.440;5.644;2023-03-29T06:42:53;6.60;99.90
53294;DHT22;39181;53.440;5.644;2023-03-29T06:45:23;6.60;99.90
53294;DHT22;39181;53.440;5.644;2023-03-29T06:47:49;6.70;99.90
53294;DHT22;39181;53.440;5.644;2023-03-29T06:50:15;6.80;99.90
53294;DHT22;39181;53.440;5.644;2023-03-29T06:52:42;6.80;99.90
53294;DHT22;39181;53.440;5.644;2023-03-29T06:55:08;6.80;99.90
53294;DHT22;39181;53.440;5.644;2023-03-29T06:57:35;6.80;99.90
53294;DHT22;39181;53.440;5.644;2023-03-29T07:00:01;6.90;99.90
53294;DHT22;39181;53.440;5.644;2023-03-29T07:02:26;6.90;99.90
53294;DHT22;39181;53.440;5.644;2023-03-29T07:04:53;6.90;99.90
53294;DHT22;39181;53.440;5.644;2023-03-29T07:07:20;7.00;99.90
53294;DHT22;39181;53.440;5.644;2023-03-29T07:09:46;7.10;99.90
53294;DHT22;39181;53.440;5.644;2023-03-29T07:12:22;7.10;99.90
53294;DHT22;39181;53.440;5.644;2023-03-29T07:14:47;7.10;99.90
53294;DHT22;39181;53.440;5.644;2023-03-29T07:17:13;7.20;99.90
53294;DHT22;39181;53.440;5.644;2023-03-29T07:19:39;7.20;99.90
53294;DHT22;39181;53.440;5.644;2023-03-29T07:22:05;7.20;99.90
53294;DHT22;39181;53.440;5.644;2023-03-29T07:24:30;7.30;99.90
53294;DHT22;39181;53.440;5.644;2023-03-29T07:26:56;7.30;99.90
53294;DHT22;39181;53.440;5.644;2023-03-29T07:29:23;7.30;99.90
53294;DHT22;39181;53.440;5.644;2023-03-29T07:31:48;7.40;99.90
53294;DHT22;39181;53.440;5.644;2023-03-29T07:34:14;7.40;99.90
53294;DHT22;39181;53.440;5.644;2023-03-29T07:36:42;7.50;99.90
53294;DHT22;39181;53.440;5.644;2023-03-29T07:39:08;7.50;99.90
53294;DHT22;39181;53.440;5.644;2023-03-29T07:41:34;7.50;99.90
53294;DHT22;39181;53.440;5.644;2023-03-29T07:44:00;7.50;99.90
53294;DHT22;39181;53.440;5.644;2023-03-29T07:46:36;7.50;99.90
53294;DHT22;39181;53.440;5.644;2023-03-29T07:49:02;7.60;99.90
53294;DHT22;39181;53.440;5.644;2023-03-29T07:51:28;7.60;99.90
53294;DHT22;39181;53.440;5.644;2023-03-29T07:53:54;7.70;99.90
53294;DHT22;39181;53.440;5.644;2023-03-29T07:56:19;7.70;99.90
53294;DHT22;39181;53.440;5.644;2023-03-29T07:58:45;7.80;99.90
53294;DHT22;39181;53.440;5.644;2023-03-29T08:01:11;7.80;99.90
53294;DHT22;39181;53.440;5.644;2023-03-29T08:03:40;7.90;99.90
53294;DHT22;39181;53.440;5.644;2023-03-29T08:06:06;7.90;99.90
53294;DHT22;39181;53.440;5.644;2023-03-29T08:08:32;8.00;99.90
53294;DHT22;39181;53.440;5.644;2023-03-29T08:10:58;8.10;99.90
53294;DHT22;39181;53.440;5.644;2023-03-29T08:13:23;8.10;99.90
53294;DHT22;39181;53.440;5.644;2023-03-29T08:15:49;8.10;99.90
53294;DHT22;39181;53.440;5.644;2023-03-29T08:18:14;8.20;99.90
53294;DHT22;39181;53.440;5.644;2023-03-29T08:20:40;8.20;99.90
53294;DHT22;39181;53.440;5.644;2023-03-29T08:23:07;8.20;99.90
53294;DHT22;39181;53.440;5.644;2023-03-29T08:25:32;8.30;99.90
53294;DHT22;39181;53.440;5.644;2023-03-29T08:27:59;8.40;99.90
53294;DHT22;39181;53.440;5.644;2023-03-29T08:30:25;8.40;99.90
53294;DHT22;39181;53.440;5.644;2023-03-29T08:32:51;8.40;99.90
53294;DHT22;39181;53.440;5.644;2023-03-29T08:35:17;8.50;99.90
53294;DHT22;39181;53.440;5.644;2023-03-29T08:37:43;8.60;99.90
53294;DHT22;39181;53.440;5.644;2023-03-29T08:40:15;8.70;99.90
53294;DHT22;39181;53.440;5.644;2023-03-29T08:43:20;8.70;99.90
53294;DHT22;39181;53.440;5.644;2023-03-29T08:46:02;8.80;99.90
53294;DHT22;39181;53.440;5.644;2023-03-29T08:48:38;8.90;99.90
53294;DHT22;39181;53.440;5.644;2023-03-29T08:51:28;9.00;99.90
53294;DHT22;39181;53.440;5.644;2023-03-29T08:54:14;9.20;99.90
53294;DHT22;39181;53.440;5.644;2023-03-29T08:56:41;9.30;99.90
53294;DHT22;39181;53.440;5.644;2023-03-29T08:59:33;9.30;99.90
53294;DHT22;39181;53.440;5.644;2023-03-29T09:02:01;9.40;99.90
53294;DHT22;39181;53.440;5.644;2023-03-29T09:04:33;9.50;99.90
53294;DHT22;39181;53.440;5.644;2023-03-29T09:07:02;9.50;99.90
53294;DHT22;39181;53.440;5.644;2023-03-29T09:09:34;9.60;99.90
53294;DHT22;39181;53.440;5.644;2023-03-29T09:22:49;9.80;99.90
53294;DHT22;39181;53.440;5.644;2023-03-29T09:31:17;10.00;99.90
53294;DHT22;39181;53.440;5.644;2023-03-29T09:33:50;10.00;99.90
53294;DHT22;39181;53.440;5.644;2023-03-29T09:36:24;10.10;99.90
53294;DHT22;39181;53.440;5.644;2023-03-29T09:38:56;10.10;99.90
53294;DHT22;39181;53.440;5.644;2023-03-29T09:44:04;10.20;99.90
53294;DHT22;39181;53.440;5.644;2023-03-29T09:46:41;10.30;99.90
53294;DHT22;39181;53.440;5.644;2023-03-29T09:52:10;10.30;99.90
53294;DHT22;39181;53.440;5.644;2023-03-29T09:54:37;10.40;99.90
53294;DHT22;39181;53.440;5.644;2023-03-29T09:57:02;10.40;99.90
53294;DHT22;39181;53.440;5.644;2023-03-29T09:59:28;10.50;99.90
53294;DHT22;39181;53.440;5.644;2023-03-29T10:02:07;10.50;99.90
53294;DHT22;39181;53.440;5.644;2023-03-29T10:04:34;10.60;99.90
53294;DHT22;39181;53.440;5.644;2023-03-29T10:06:59;10.60;99.90
53294;DHT22;39181;53.440;5.644;2023-03-29T10:09:28;10.70;99.90
53294;DHT22;39181;53.440;5.644;2023-03-29T10:11:56;10.80;99.90
53294;DHT22;39181;53.440;5.644;2023-03-29T10:14:37;10.90;99.90
53294;DHT22;39181;53.440;5.644;2023-03-29T10:17:17;11.00;99.90
53294;DHT22;39181;53.440;5.644;2023-03-29T10:19:51;11.00;99.90
53294;DHT22;39181;53.440;5.644;2023-03-29T10:22:34;11.10;99.90
53294;DHT22;39181;53.440;5.644;2023-03-29T10:25:02;11.20;99.90
53294;DHT22;39181;53.440;5.644;2023-03-29T10:27:30;11.40;99.90
53294;DHT22;39181;53.440;5.644;2023-03-29T10:30:07;11.60;99.90
53294;DHT22;39181;53.440;5.644;2023-03-29T10:32:37;11.80;99.90
53294;DHT22;39181;53.440;5.644;2023-03-29T10:35:23;12.00;99.90
53294;DHT22;39181;53.440;5.644;2023-03-29T10:37:50;12.20;99.90
53294;DHT22;39181;53.440;5.644;2023-03-29T10:42:47;12.30;99.90
53294;DHT22;39181;53.440;5.644;2023-03-29T10:45:30;12.40;99.90
53294;DHT22;39181;53.440;5.644;2023-03-29T10:47:58;12.50;99.90
53294;DHT22;39181;53.440;5.644;2023-03-29T10:50:25;12.50;99.90
53294;DHT22;39181;53.440;5.644;2023-03-29T10:52:51;12.50;99.90
53294;DHT22;39181;53.440;5.644;2023-03-29T10:55:17;12.40;99.90
53294;DHT22;39181;53.440;5.644;2023-03-29T11:00:26;12.40;99.90
53294;DHT22;39181;53.440;5.644;2023-03-29T11:05:55;12.20;99.90
53294;DHT22;39181;53.440;5.644;2023-03-29T11:19:13;12.50;99.90
53294;DHT22;39181;53.440;5.644;2023-03-29T11:27:44;12.40;99.90
53294;DHT22;39181;53.440;5.644;2023-03-29T11:33:27;12.40;99.90
53294;DHT22;39181;53.440;5.644;2023-03-29T11:35:56;12.40;99.90
53294;DHT22;39181;53.440;5.644;2023-03-29T11:41:09;12.50;99.90
53294;DHT22;39181;53.440;5.644;2023-03-29T11:43:49;12.60;99.90
53294;DHT22;39181;53.440;5.644;2023-03-29T11:46:27;12.70;99.90
53294;DHT22;39181;53.440;5.644;2023-03-29T11:49:23;12.90;99.90
53294;DHT22;39181;53.440;5.644;2023-03-29T11:52:01;13.00;99.90
53294;DHT22;39181;53.440;5.644;2023-03-29T11:54:48;13.10;99.90
53294;DHT22;39181;53.440;5.644;2023-03-29T11:57:36;13.00;99.90
53294;DHT22;39181;53.440;5.644;2023-03-29T12:00:06;13.00;99.90
53294;DHT22;39181;53.440;5.644;2023-03-29T12:02:38;12.90;99.90
53294;DHT22;39181;53.440;5.644;2023-03-29T12:05:19;12.90;99.90
53294;DHT22;39181;53.440;5.644;2023-03-29T12:07:56;12.90;99.90
53294;DHT22;39181;53.440;5.644;2023-03-29T12:10:30;12.80;99.90
53294;DHT22;39181;53.440;5.644;2023-03-29T12:13:06;12.90;99.90
53294;DHT22;39181;53.440;5.644;2023-03-29T12:15:58;12.90;99.90
53294;DHT22;39181;53.440;5.644;2023-03-29T12:18:38;13.10;99.90
53294;DHT22;39181;53.440;5.644;2023-03-29T12:21:11;13.20;99.90
53294;DHT22;39181;53.440;5.644;2023-03-29T12:23:40;13.30;99.90
53294;DHT22;39181;53.440;5.644;2023-03-29T12:34:49;13.30;99.90
53294;DHT22;39181;53.440;5.644;2023-03-29T12:37:35;13.20;99.90
53294;DHT22;39181;53.440;5.644;2023-03-29T12:40:18;13.10;99.90
53294;DHT22;39181;53.440;5.644;2023-03-29T12:42:51;13.20;99.90
53294;DHT22;39181;53.440;5.644;2023-03-29T12:45:26;13.20;99.90
53294;DHT22;39181;53.440;5.644;2023-03-29T12:47:54;13.10;99.90
53294;DHT22;39181;53.440;5.644;2023-03-29T12:50:34;13.10;99.90
53294;DHT22;39181;53.440;5.644;2023-03-29T12:53:25;13.10;99.90
53294;DHT22;39181;53.440;5.644;2023-03-29T12:56:16;13.10;99.90
53294;DHT22;39181;53.440;5.644;2023-03-29T12:59:15;13.10;99.90
53294;DHT22;39181;53.440;5.644;2023-03-29T13:02:01;13.10;99.90
53294;DHT22;39181;53.440;5.644;2023-03-29T13:07:28;13.00;99.90
53294;DHT22;39181;53.440;5.644;2023-03-29T13:10:05;13.10;99.90
53294;DHT22;39181;53.440;5.644;2023-03-29T13:12:40;13.10;99.90
53294;DHT22;39181;53.440;5.644;2023-03-29T13:15:22;13.10;99.90
53294;DHT22;39181;53.440;5.644;2023-03-29T13:20:45;13.10;99.90
53294;DHT22;39181;53.440;5.644;2023-03-29T13:26:42;13.40;99.90
53294;DHT22;39181;53.440;5.644;2023-03-29T13:38:11;14.10;99.90
53294;DHT22;39181;53.440;5.644;2023-03-29T13:43:09;14.20;99.90
53294;DHT22;39181;53.440;5.644;2023-03-29T13:45:36;14.20;99.90
53294;DHT22;39181;53.440;5.644;2023-03-29T13:48:26;14.30;99.90
53294;DHT22;39181;53.440;5.644;2023-03-29T13:51:17;14.30;99.90
53294;DHT22;39181;53.440;5.644;2023-03-29T13:53:48;14.30;99.90
53294;DHT22;39181;53.440;5.644;2023-03-29T13:56:27;14.20;99.90
53294;DHT22;39181;53.440;5.644;2023-03-29T13:59:22;14.20;99.90
53294;DHT22;39181;53.440;5.644;2023-03-29T14:01:51;14.30;99.90
53294;DHT22;39181;53.440;5.644;2023-03-29T14:04:40;14.30;99.90
53294;DHT22;39181;53.440;5.644;2023-03-29T14:07:10;14.30;99.90
53294;DHT22;39181;53.440;5.644;2023-03-29T14:09:41;14.20;99.90
53294;DHT22;39181;53.440;5.644;2023-03-29T14:12:11;14.20;99.90
53294;DHT22;39181;53.440;5.644;2023-03-29T14:14:40;14.30;99.90
53294;DHT22;39181;53.440;5.644;2023-03-29T14:17:09;14.00;99.90
53294;DHT22;39181;53.440;5.644;2023-03-29T14:19:37;13.90;99.90
53294;DHT22;39181;53.440;5.644;2023-03-29T14:22:08;13.80;99.90
53294;DHT22;39181;53.440;5.644;2023-03-29T14:24:38;13.80;99.90
53294;DHT22;39181;53.440;5.644;2023-03-29T14:27:06;13.70;99.90
53294;DHT22;39181;53.440;5.644;2023-03-29T14:29:35;13.60;99.90
53294;DHT22;39181;53.440;5.644;2023-03-29T14:32:12;13.70;99.90
53294;DHT22;39181;53.440;5.644;2023-03-29T14:34:38;13.60;99.90
53294;DHT22;39181;53.440;5.644;2023-03-29T14:37:05;13.60;99.90
53294;DHT22;39181;53.440;5.644;2023-03-29T14:39:33;13.60;99.90
53294;DHT22;39181;53.440;5.644;2023-03-29T14:42:00;13.60;99.90
53294;DHT22;39181;53.440;5.644;2023-03-29T14:44:31;13.60;99.90
53294;DHT22;39181;53.440;5.644;2023-03-29T14:46:58;13.60;99.90
53294;DHT22;39181;53.440;5.644;2023-03-29T14:49:24;13.70;99.90
53294;DHT22;39181;53.440;5.644;2023-03-29T14:51:51;13.70;99.90
53294;DHT22;39181;53.440;5.644;2023-03-29T14:54:28;13.60;99.90
53294;DHT22;39181;53.440;5.644;2023-03-29T14:56:56;13.60;99.90
53294;DHT22;39181;53.440;5.644;2023-03-29T15:01:59;13.50;99.90
53294;DHT22;39181;53.440;5.644;2023-03-29T15:04:31;13.40;99.90
53294;DHT22;39181;53.440;5.644;2023-03-29T15:06:57;13.40;99.90
53294;DHT22;39181;53.440;5.644;2023-03-29T15:09:30;13.30;99.90
53294;DHT22;39181;53.440;5.644;2023-03-29T15:11:58;13.30;99.90
53294;DHT22;39181;53.440;5.644;2023-03-29T15:14:26;13.10;99.90
53294;DHT22;39181;53.440;5.644;2023-03-29T15:16:57;13.10;99.90
53294;DHT22;39181;53.440;5.644;2023-03-29T15:19:25;13.00;99.90
53294;DHT22;39181;53.440;5.644;2023-03-29T15:21:50;12.90;99.90
53294;DHT22;39181;53.440;5.644;2023-03-29T15:24:29;12.80;99.90
53294;DHT22;39181;53.440;5.644;2023-03-29T15:27:16;12.70;99.90
53294;DHT22;39181;53.440;5.644;2023-03-29T15:29:44;12.60;99.90
53294;DHT22;39181;53.440;5.644;2023-03-29T15:32:30;12.50;99.90
53294;DHT22;39181;53.440;5.644;2023-03-29T15:35:03;12.50;99.90
53294;DHT22;39181;53.440;5.644;2023-03-29T15:37:29;12.40;99.90
53294;DHT22;39181;53.440;5.644;2023-03-29T15:39:56;12.30;99.90
53294;DHT22;39181;53.440;5.644;2023-03-29T15:42:22;12.20;99.90
53294;DHT22;39181;53.440;5.644;2023-03-29T15:44:52;12.00;99.90
53294;DHT22;39181;53.440;5.644;2023-03-29T15:47:18;12.00;99.90
53294;DHT22;39181;53.440;5.644;2023-03-29T15:49:45;11.90;99.90
53294;DHT22;39181;53.440;5.644;2023-03-29T15:52:11;11.80;99.90
53294;DHT22;39181;53.440;5.644;2023-03-29T15:54:37;11.60;99.90
53294;DHT22;39181;53.440;5.644;2023-03-29T15:57:05;11.60;99.90
53294;DHT22;39181;53.440;5.644;2023-03-29T15:59:31;11.50;99.90
53294;DHT22;39181;53.440;5.644;2023-03-29T16:01:57;11.50;99.90
53294;DHT22;39181;53.440;5.644;2023-03-29T16:04:24;11.40;99.90
53294;DHT22;39181;53.440;5.644;2023-03-29T16:06:52;11.30;99.90
53294;DHT22;39181;53.440;5.644;2023-03-29T16:09:20;11.20;99.90
53294;DHT22;39181;53.440;5.644;2023-03-29T16:11:46;11.20;99.90
53294;DHT22;39181;53.440;5.644;2023-03-29T16:14:20;11.10;99.90
53294;DHT22;39181;53.440;5.644;2023-03-29T16:16:48;11.00;99.90
53294;DHT22;39181;53.440;5.644;2023-03-29T16:19:13;11.00;99.90
53294;DHT22;39181;53.440;5.644;2023-03-29T16:21:40;10.90;99.90
53294;DHT22;39181;53.440;5.644;2023-03-29T16:24:12;10.90;99.90
53294;DHT22;39181;53.440;5.644;2023-03-29T16:26:38;10.80;99.90
53294;DHT22;39181;53.440;5.644;2023-03-29T16:29:04;10.70;99.90
53294;DHT22;39181;53.440;5.644;2023-03-29T16:31:30;10.60;99.90
53294;DHT22;39181;53.440;5.644;2023-03-29T16:33:56;10.60;99.90
53294;DHT22;39181;53.440;5.644;2023-03-29T16:36:22;10.50;99.90
53294;DHT22;39181;53.440;5.644;2023-03-29T16:38:47;10.60;99.90
53294;DHT22;39181;53.440;5.644;2023-03-29T16:41:14;10.60;99.90
53294;DHT22;39181;53.440;5.644;2023-03-29T16:43:40;10.60;99.90
53294;DHT22;39181;53.440;5.644;2023-03-29T16:46:08;10.60;99.90
53294;DHT22;39181;53.440;5.644;2023-03-29T16:48:34;10.50;99.90
53294;DHT22;39181;53.440;5.644;2023-03-29T16:50:59;10.50;99.90
53294;DHT22;39181;53.440;5.644;2023-03-29T16:53:25;10.50;99.90
53294;DHT22;39181;53.440;5.644;2023-03-29T16:55:53;10.50;99.90
53294;DHT22;39181;53.440;5.644;2023-03-29T16:58:18;10.50;99.90
53294;DHT22;39181;53.440;5.644;2023-03-29T17:00:44;10.40;99.90
53294;DHT22;39181;53.440;5.644;2023-03-29T17:03:10;10.40;99.90
53294;DHT22;39181;53.440;5.644;2023-03-29T17:05:35;10.40;99.90
53294;DHT22;39181;53.440;5.644;2023-03-29T17:08:06;10.40;99.90
53294;DHT22;39181;53.440;5.644;2023-03-29T17:10:32;10.40;99.90
53294;DHT22;39181;53.440;5.644;2023-03-29T17:12:58;10.40;99.90
53294;DHT22;39181;53.440;5.644;2023-03-29T17:15:24;10.30;99.90
53294;DHT22;39181;53.440;5.644;2023-03-29T17:17:49;10.30;99.90
53294;DHT22;39181;53.440;5.644;2023-03-29T17:20:15;10.30;99.90
53294;DHT22;39181;53.440;5.644;2023-03-29T17:22:40;10.30;99.90
53294;DHT22;39181;53.440;5.644;2023-03-29T17:25:07;10.20;99.90
53294;DHT22;39181;53.440;5.644;2023-03-29T17:27:33;10.20;99.90
53294;DHT22;39181;53.440;5.644;2023-03-29T17:30:00;10.20;99.90